Latest Weather Observations for Sydney Harbour

IDN60801

Issued at 12:42 pm EDT Sunday 18 November 2018 (issued every 10 minutes, with the page automatically refreshed every 10 minutes)

About weather observations | Map of weather stations | Latest weather observations for NSW | Other Formats
Station Details ID: 066196 Name: WEDDING CAKE WEST Lat: -33.84 Lon: 151.26 Height: 6.0 m
Data from the previous 72 hours. | See also: Recent months at Sydney Harbour
Date/Time
EDT
Temp
°C
App
Temp
°C
Dew
Point
°C
Rel
Hum
%
Delta-T
°C
Wind Press
QNH
hPa
Press
MSL
hPa
Rain since
9am
mm
Dir  Spd
km/h
Gust
km/h
Spd
kts
Gust
kts
18/12:30pm 20.0 - - - - ESE 20 28 11 15 - - -
18/12:00pm 20.3 - - - - ESE 20 26 11 14 - - -
18/11:30am 19.3 - - - - SSE 20 24 11 13 - - -
18/11:00am 20.1 - - - - ESE 17 22 9 12 - - -
18/10:30am 20.0 - - - - ESE 17 24 9 13 - - -
18/10:00am 19.6 - - - - SE 17 24 9 13 - - -
18/09:30am 19.2 - - - - SE 20 24 11 13 - - -
18/09:00am 19.2 - - - - SE 19 26 10 14 - - -
18/08:30am 19.0 - - - - SE 20 28 11 15 - - -
18/08:00am 18.8 - - - - SSE 20 26 11 14 - - -
18/07:30am 18.8 - - - - SSE 20 26 11 14 - - -
18/07:00am 18.5 - - - - SSE 20 28 11 15 - - -
18/06:30am 18.2 - - - - SSE 20 26 11 14 - - -
18/06:00am 18.1 - - - - SSE 24 30 13 16 - - -
18/05:30am 18.2 - - - - SSE 20 30 11 16 - - -
18/05:00am 18.2 - - - - SSE 24 33 13 18 - - -
18/04:30am 18.2 - - - - SSE 28 39 15 21 - - -
18/04:00am 17.7 - - - - S 20 30 11 16 - - -
18/03:30am 17.1 - - - - SSE 24 35 13 19 - - -
18/03:00am 17.7 - - - - SE 15 28 8 15 - - -
18/02:30am 17.3 - - - - E 15 22 8 12 - - -
18/02:00am 18.5 - - - - SSE 15 20 8 11 - - -
18/01:30am 18.1 - - - - E 13 19 7 10 - - -
18/01:00am 18.4 - - - - SSE 17 28 9 15 - - -
18/12:30am 18.5 - - - - SSE 19 26 10 14 - - -
18/12:00am 18.8 - - - - SSE 19 26 10 14 - - -
 
Date/Time
EDT
Temp
°C
App
Temp
°C
Dew
Point
°C
Rel
Hum
%
Delta-T
°C
Wind Press
QNH
hPa
Press
MSL
hPa
Rain since
9am
mm
Dir  Spd
km/h
Gust
km/h
Spd
kts
Gust
kts
17/11:30pm 18.8 - - - - SSE 24 33 13 18 - - -
17/11:00pm 18.7 - - - - SSE 20 30 11 16 - - -
17/10:30pm 18.8 - - - - SSE 24 32 13 17 - - -
17/10:00pm 18.9 - - - - SSE 22 30 12 16 - - -
17/09:30pm 19.0 - - - - SSE 22 30 12 16 - - -
17/09:00pm 19.1 - - - - SSE 22 30 12 16 - - -
17/08:30pm 19.0 - - - - SSE 22 30 12 16 - - -
17/08:00pm 19.1 - - - - SSE 24 30 13 16 - - -
17/07:30pm 19.1 - - - - S 26 33 14 18 - - -
17/07:00pm 18.9 - - - - SSE 28 37 15 20 - - -
17/06:30pm 18.5 - - - - S 26 37 14 20 - - -
17/06:00pm 18.0 - - - - S 35 46 19 25 - - -
17/05:30pm 19.3 - - - - SSE 28 39 15 21 - - -
17/05:00pm 19.1 - - - - SSE 28 35 15 19 - - -
17/04:30pm 19.8 - - - - SSE 28 35 15 19 - - -
17/04:00pm 20.1 - - - - SSE 33 44 18 24 - - -
17/03:30pm 19.5 - - - - S 35 44 19 24 - - -
17/03:00pm 19.6 - - - - S 33 43 18 23 - - -
17/02:30pm 19.8 - - - - S 33 43 18 23 - - -
17/02:00pm 19.9 - - - - S 33 41 18 22 - - -
17/01:30pm 19.7 - - - - S 30 35 16 19 - - -
17/01:00pm 19.8 - - - - S 33 44 18 24 - - -
17/12:30pm 19.9 - - - - S 30 37 16 20 - - -
17/12:00pm 19.8 - - - - S 30 39 16 21 - - -
17/11:30am 19.9 - - - - S 28 37 15 20 - - -
17/11:00am 19.3 - - - - S 28 35 15 19 - - -
17/10:30am 20.0 - - - - SSE 24 30 13 16 - - -
17/10:00am 19.4 - - - - S 24 30 13 16 - - -
17/09:30am 19.4 - - - - S 22 28 12 15 - - -
17/09:00am 18.6 - - - - SSW 20 28 11 15 - - -
17/08:30am 18.3 - - - - SSW 19 26 10 14 - - -
17/08:00am 17.9 - - - - SSW 20 26 11 14 - - -
17/07:30am 17.1 - - - - SW 17 20 9 11 - - -
17/07:00am 16.9 - - - - SSW 17 20 9 11 - - -
17/06:30am 16.6 - - - - S 15 17 8 9 - - -
17/06:00am 16.5 - - - - S 9 13 5 7 - - -
17/05:30am 16.5 - - - - S 9 11 5 6 - - -
17/05:00am 16.6 - - - - S 9 11 5 6 - - -
17/04:30am 16.3 - - - - S 7 9 4 5 - - -
17/04:00am 16.4 - - - - S 11 11 6 6 - - -
17/03:30am 16.4 - - - - S 7 9 4 5 - - -
17/03:00am 16.5 - - - - S 6 7 3 4 - - -
17/02:30am 16.8 - - - - S 7 9 4 5 - - -
17/02:00am 16.9 - - - - S 11 13 6 7 - - -
17/01:30am 17.0 - - - - S 11 13 6 7 - - -
17/01:00am 16.9 - - - - S 11 11 6 6 - - -
17/12:30am 17.1 - - - - S 7 9 4 5 - - -
17/12:00am 17.2 - - - - CALM 0 0 0 0 - - -
 
Date/Time
EDT
Temp
°C
App
Temp
°C
Dew
Point
°C
Rel
Hum
%
Delta-T
°C
Wind Press
QNH
hPa
Press
MSL
hPa
Rain since
9am
mm
Dir  Spd
km/h
Gust
km/h
Spd
kts
Gust
kts
16/11:30pm 17.3 - - - - CALM 0 0 0 0 - - -
16/11:00pm 17.9 - - - - S 6 7 3 4 - - -
16/10:30pm 18.0 - - - - CALM 0 0 0 0 - - -
16/10:00pm 17.9 - - - - CALM 0 0 0 0 - - -
16/09:30pm 17.8 - - - - S 2 6 1 3 - - -
16/09:00pm 18.2 - - - - S 6 7 3 4 - - -
16/08:30pm 18.6 - - - - S 9 11 5 6 - - -
16/08:00pm 18.6 - - - - S 13 15 7 8 - - -
16/07:30pm 18.6 - - - - S 17 20 9 11 - - -
16/07:00pm 18.6 - - - - S 20 24 11 13 - - -
16/06:30pm 18.8 - - - - S 19 24 10 13 - - -
16/06:00pm 19.5 - - - - SSE 17 22 9 12 - - -
16/05:30pm 19.7 - - - - SSE 20 26 11 14 - - -
16/05:00pm 19.2 - - - - S 22 26 12 14 - - -
16/04:30pm 18.9 - - - - S 20 26 11 14 - - -
16/04:00pm 18.8 - - - - S 20 24 11 13 - - -
16/03:30pm 18.9 - - - - S 19 24 10 13 - - -
16/03:00pm 19.0 - - - - SSE 20 24 11 13 - - -
16/02:30pm 18.7 - - - - SSE 20 26 11 14 - - -
16/02:00pm 18.8 - - - - SSE 22 28 12 15 - - -
16/01:30pm 18.7 - - - - S 22 26 12 14 - - -
16/01:00pm 18.7 - - - - S 17 24 9 13 - - -
16/12:30pm 18.5 - - - - SSW 20 33 11 18 - - -
16/12:00pm 18.2 - - - - SSW 20 28 11 15 - - -
16/11:30am 17.8 - - - - SW 20 28 11 15 - - -
16/11:00am 17.2 - - - - SSW 22 28 12 15 - - -
16/10:30am 16.9 - - - - SSW 20 26 11 14 - - -
16/10:00am 16.4 - - - - SW 22 26 12 14 - - -
16/09:30am 16.6 - - - - SSW 22 26 12 14 - - -
16/09:00am 17.0 - - - - SSW 24 30 13 16 - - -
16/08:30am 16.8 - - - - SSW 28 35 15 19 - - -
16/08:00am 17.0 - - - - SSW 30 35 16 19 - - -
16/07:30am 17.2 - - - - SSW 26 32 14 17 - - -
16/07:00am 17.0 - - - - SSW 26 33 14 18 - - -
16/06:30am 17.2 - - - - SSW 28 37 15 20 - - -
16/06:00am 17.4 - - - - SSW 24 35 13 19 - - -
16/05:30am 17.4 - - - - SSW 26 32 14 17 - - -
16/05:00am 17.2 - - - - SW 24 30 13 16 - - -
16/04:30am 17.3 - - - - SW 26 32 14 17 - - -
16/04:00am 17.5 - - - - SSW 20 28 11 15 - - -
16/03:30am 17.8 - - - - SSW 20 28 11 15 - - -
16/03:00am 17.8 - - - - SSW 26 32 14 17 - - -
16/02:30am 17.9 - - - - SSW 28 37 15 20 - - -
16/02:00am 17.7 - - - - SSW 28 37 15 20 - - -
16/01:30am 18.1 - - - - S 28 32 15 17 - - -
16/01:00am 18.1 - - - - S 26 32 14 17 - - -
16/12:30am 18.3 - - - - S 28 35 15 19 - - -
16/12:00am 18.3 - - - - S 24 32 13 17 - - -
 
Date/Time
EDT
Temp
°C
App
Temp
°C
Dew
Point
°C
Rel
Hum
%
Delta-T
°C
Wind Press
QNH
hPa
Press
MSL
hPa
Rain since
9am
mm
Dir  Spd
km/h
Gust
km/h
Spd
kts
Gust
kts
15/11:30pm 17.9 - - - - S 28 35 15 19 - - -
15/11:00pm 18.2 - - - - SSE 19 24 10 13 - - -
15/10:30pm 18.1 - - - - S 22 30 12 16 - - -
15/10:00pm 18.3 - - - - S 33 43 18 23 - - -
15/09:30pm 18.3 - - - - S 26 32 14 17 - - -
15/09:00pm 18.2 - - - - SSE 28 41 15 22 - - -
15/08:30pm 18.1 - - - - S 32 41 17 22 - - -
15/08:07pm 17.8 - - - - S 30 48 16 26 - - -
15/08:00pm 17.7 - - - - SSE 33 44 18 24 - - -
15/07:30pm 17.7 - - - - S 32 44 17 24 - - -
15/07:00pm 17.1 - - - - SSE 32 46 17 25 - - -
15/06:30pm 16.7 - - - - S 35 50 19 27 - - -
15/06:00pm 17.3 - - - - SSE 32 44 17 24 - - -
15/05:30pm 17.2 - - - - SSE 33 43 18 23 - - -
15/05:00pm 17.9 - - - - S 30 43 16 23 - - -
15/04:44pm 18.5 - - - - S 28 46 15 25 - - -
15/04:30pm 18.4 - - - - S 28 39 15 21 - - -
15/04:00pm 18.8 - - - - S 33 44 18 24 - - -
15/03:30pm 18.2 - - - - SSE 33 44 18 24 - - -
15/03:00pm 18.1 - - - - S 32 39 17 21 - - -
15/02:30pm 18.1 - - - - S 39 48 21 26 - - -
15/02:00pm 18.4 - - - - S 35 44 19 24 - - -
15/01:30pm 18.3 - - - - S 33 44 18 24 - - -
15/01:00pm 18.5 - - - - S 35 46 19 25 - - -

Other Formats:

Comma delimited format used in spreadsheet applications
http://www.bom.gov.au/fwo/IDN60801/IDN60801.95766.axf

JavaScript Object Notation format (JSON) in row-major order
http://www.bom.gov.au/fwo/IDN60801/IDN60801.95766.json